Time;durP1;ratioP1;P1;durP2;ratioP2;P2;SDS_P1;SDS_P2;PMS_P1;PMS_P2;Temp;Humidity;BMP_temperature;BMP_pressure;BME280_temperature;BME280_humidity;BME280_pressure;Samples;Min_cycle;Max_cycle;Signal;HPM_P1;HPM_P2
2021/12/18 00:02:52;;;;;;;19.73;14.53;;;;;;;;;;4924326;29;20632;-71
2021/12/18 00:05:57;;;;;;;19.73;14.87;;;;;;;;;;4934788;29;20641;-72
2021/12/18 00:09:02;;;;;;;22.33;15.67;;;;;;;;;;4927531;29;20615;-71
2021/12/18 00:12:07;;;;;;;22.93;15.17;;;;;;;;;;4947304;29;20673;-71
2021/12/18 00:15:12;;;;;;;22.27;15.10;;;;;;;;;;4958323;29;20601;-71
2021/12/18 00:18:16;;;;;;;21.23;15.47;;;;;;;;;;4958427;29;20564;-71
2021/12/18 00:21:21;;;;;;;27.10;18.07;;;;;;;;;;4946210;29;21031;-71
2021/12/18 00:24:25;;;;;;;26.47;18.00;;;;;;;;;;4958440;29;21189;-71
2021/12/18 00:27:29;;;;;;;27.90;18.23;;;;;;;;;;4957907;29;21217;-71
2021/12/18 00:30:34;;;;;;;28.10;17.70;;;;;;;;;;4946359;29;20570;-71
2021/12/18 00:33:39;;;;;;;28.67;18.43;;;;;;;;;;4958209;29;20636;-71
2021/12/18 00:36:43;;;;;;;30.40;17.17;;;;;;;;;;4957784;29;21181;-71
2021/12/18 00:39:55;;;;;;;27.87;17.17;;;;;;;;;;4957767;29;20584;-71
2021/12/18 00:43:02;;;;;;;30.30;17.53;;;;;;;;;;4935033;29;20992;-71
2021/12/18 00:46:06;;;;;;;35.50;18.93;;;;;;;;;;4957813;29;20964;-71
2021/12/18 00:49:14;;;;;;;34.40;18.20;;;;;;;;;;4926989;29;20619;-71
2021/12/18 00:52:18;;;;;;;31.90;18.77;;;;;;;;;;4938506;29;20634;-71
2021/12/18 00:55:23;;;;;;;30.37;17.67;;;;;;;;;;4955386;29;20602;-71
2021/12/18 00:58:28;;;;;;;31.70;17.77;;;;;;;;;;4945897;29;20556;-71
2021/12/18 01:01:32;;;;;;;35.47;19.30;;;;;;;;;;4945731;29;20653;-71
2021/12/18 01:04:36;;;;;;;31.27;18.73;;;;;;;;;;4956685;29;20608;-71
2021/12/18 01:07:40;;;;;;;29.67;18.03;;;;;;;;;;4957125;29;20610;-71
2021/12/18 01:23:34;;;;;;;35.53;20.53;;;;;;;;;;4957054;29;20606;-71
2021/12/18 01:26:38;;;;;;;30.67;18.97;;;;;;;;;;4950180;29;20647;-71
2021/12/18 01:29:43;;;;;;;32.43;19.03;;;;;;;;;;4956263;29;20547;-71
2021/12/18 01:32:47;;;;;;;32.03;18.53;;;;;;;;;;4956791;29;20661;-71
2021/12/18 01:35:53;;;;;;;32.00;18.87;;;;;;;;;;4956769;29;20561;-71
2021/12/18 01:38:57;;;;;;;31.87;17.00;;;;;;;;;;4956912;29;20551;-71
2021/12/18 01:51:59;;;;;;;32.67;17.33;;;;;;;;;;4956035;29;20670;-71
2021/12/18 01:55:05;;;;;;;33.10;17.43;;;;;;;;;;4944693;29;20598;-71
2021/12/18 01:58:09;;;;;;;31.23;16.73;;;;;;;;;;4956503;29;20602;-71
2021/12/18 02:01:15;;;;;;;32.83;17.17;;;;;;;;;;4936434;29;20634;-71
2021/12/18 02:04:19;;;;;;;30.57;17.00;;;;;;;;;;4937491;29;20606;-71
2021/12/18 02:07:23;;;;;;;27.77;16.77;;;;;;;;;;4925417;29;21183;-71
2021/12/18 02:10:30;;;;;;;27.97;16.37;;;;;;;;;;4950590;29;20602;-71
2021/12/18 02:13:57;;;;;;;33.40;18.10;;;;;;;;;;4944456;29;20554;-71
2021/12/18 02:23:39;;;;;;;34.17;18.47;;;;;;;;;;4955839;29;20949;-71
2021/12/18 02:26:43;;;;;;;31.13;17.20;;;;;;;;;;4943691;29;20587;-71
2021/12/18 02:29:48;;;;;;;31.13;16.67;;;;;;;;;;4955034;28;20607;-71
2021/12/18 02:32:53;;;;;;;32.27;17.20;;;;;;;;;;4955827;29;20632;-71
2021/12/18 02:35:58;;;;;;;28.40;16.00;;;;;;;;;;4955851;29;20560;-71
2021/12/18 02:39:20;;;;;;;30.80;16.73;;;;;;;;;;4924847;29;20545;-71
2021/12/18 02:42:25;;;;;;;27.03;15.50;;;;;;;;;;4914182;29;20631;-71
2021/12/18 02:45:29;;;;;;;30.60;17.23;;;;;;;;;;4939654;29;20602;-71
2021/12/18 02:48:35;;;;;;;33.00;18.17;;;;;;;;;;4943700;29;21229;-71
2021/12/18 02:51:40;;;;;;;27.87;16.30;;;;;;;;;;4955424;29;20726;-71
2021/12/18 02:54:44;;;;;;;31.17;16.17;;;;;;;;;;4955653;29;20917;-71
2021/12/18 02:57:49;;;;;;;29.00;16.57;;;;;;;;;;4955433;29;20606;-71
2021/12/18 03:00:55;;;;;;;29.33;15.97;;;;;;;;;;4955329;29;20580;-71
2021/12/18 03:04:01;;;;;;;28.97;15.57;;;;;;;;;;4955332;29;20554;-71
2021/12/18 03:07:07;;;;;;;28.17;15.87;;;;;;;;;;4939896;29;20956;-71
2021/12/18 03:23:50;;;;;;;26.83;15.23;;;;;;;;;;4916677;29;20970;-71
2021/12/18 03:26:55;;;;;;;31.30;15.73;;;;;;;;;;4954680;29;20559;-71
2021/12/18 03:29:59;;;;;;;26.03;15.40;;;;;;;;;;4945048;29;20669;-71
2021/12/18 03:33:04;;;;;;;29.83;15.97;;;;;;;;;;4954870;29;21219;-71
2021/12/18 03:36:08;;;;;;;26.90;15.73;;;;;;;;;;4954822;29;20602;-71
2021/12/18 03:39:15;;;;;;;28.83;16.37;;;;;;;;;;4953244;29;20970;-71
2021/12/18 03:42:19;;;;;;;27.07;16.57;;;;;;;;;;4954802;29;20651;-71
2021/12/18 03:45:24;;;;;;;30.07;16.37;;;;;;;;;;4954947;29;20550;-71
2021/12/18 03:48:28;;;;;;;29.87;15.87;;;;;;;;;;4953866;29;21253;-71
2021/12/18 03:51:32;;;;;;;29.30;15.63;;;;;;;;;;4935684;29;21225;-71
2021/12/18 03:54:36;;;;;;;27.60;15.57;;;;;;;;;;4936436;29;20602;-71
2021/12/18 03:57:40;;;;;;;29.33;16.00;;;;;;;;;;4954051;29;20603;-71
2021/12/18 04:00:45;;;;;;;28.73;15.77;;;;;;;;;;4953563;29;21154;-71
2021/12/18 04:03:49;;;;;;;29.07;15.90;;;;;;;;;;4942732;29;20598;-71
2021/12/18 04:06:53;;;;;;;30.73;17.00;;;;;;;;;;4942891;29;20564;-71
2021/12/18 04:09:57;;;;;;;25.37;15.43;;;;;;;;;;4927287;29;20630;-71
2021/12/18 04:13:02;;;;;;;27.87;15.27;;;;;;;;;;4942766;29;20631;-71
2021/12/18 04:16:06;;;;;;;26.30;15.37;;;;;;;;;;4953550;29;20571;-71
2021/12/18 04:19:10;;;;;;;27.03;15.00;;;;;;;;;;4954317;29;20597;-71
2021/12/18 04:22:14;;;;;;;27.83;15.33;;;;;;;;;;4942701;29;20651;-71
2021/12/18 04:25:19;;;;;;;25.83;15.13;;;;;;;;;;4942770;29;20560;-71
2021/12/18 04:28:25;;;;;;;27.47;15.53;;;;;;;;;;4954195;29;20747;-71
2021/12/18 04:31:29;;;;;;;24.67;14.70;;;;;;;;;;4954157;29;20671;-71
2021/12/18 04:34:33;;;;;;;25.70;15.43;;;;;;;;;;4942657;29;20559;-71
2021/12/18 04:37:37;;;;;;;26.57;15.90;;;;;;;;;;4954290;29;20598;-71
2021/12/18 04:40:43;;;;;;;24.60;14.10;;;;;;;;;;4935340;29;21117;-71
2021/12/18 04:43:48;;;;;;;25.67;14.90;;;;;;;;;;4941622;29;20997;-71
2021/12/18 04:46:53;;;;;;;26.47;14.43;;;;;;;;;;4935286;29;20616;-71
2021/12/18 04:49:57;;;;;;;25.57;15.53;;;;;;;;;;4937361;29;20658;-71
2021/12/18 04:53:01;;;;;;;29.10;16.20;;;;;;;;;;4933153;29;20617;-71
2021/12/18 04:56:06;;;;;;;23.00;14.97;;;;;;;;;;4957408;29;20598;-71
2021/12/18 04:59:10;;;;;;;30.47;16.83;;;;;;;;;;4945683;29;20583;-71
2021/12/18 05:02:18;;;;;;;28.27;15.70;;;;;;;;;;4945748;29;21217;-71
2021/12/18 05:05:22;;;;;;;31.27;15.07;;;;;;;;;;4957581;29;20571;-71
2021/12/18 05:08:26;;;;;;;27.53;15.07;;;;;;;;;;4957514;29;20562;-71
2021/12/18 05:11:31;;;;;;;27.47;15.70;;;;;;;;;;4938232;29;20669;-71
2021/12/18 05:14:35;;;;;;;26.50;14.07;;;;;;;;;;4957419;29;20580;-71
2021/12/18 05:17:39;;;;;;;23.80;14.00;;;;;;;;;;4957431;29;20562;-71
2021/12/18 05:20:43;;;;;;;26.67;14.23;;;;;;;;;;4957150;29;20556;-71
2021/12/18 05:23:48;;;;;;;25.87;15.17;;;;;;;;;;4956962;29;20598;-71
2021/12/18 05:26:52;;;;;;;25.23;14.20;;;;;;;;;;4957163;29;20563;-71
2021/12/18 05:29:56;;;;;;;23.23;13.47;;;;;;;;;;4956998;29;20615;-71
2021/12/18 05:33:01;;;;;;;25.80;14.17;;;;;;;;;;4956741;29;20657;-71
2021/12/18 05:36:24;;;;;;;23.37;13.67;;;;;;;;;;4956800;29;20608;-71
2021/12/18 05:39:29;;;;;;;25.97;14.60;;;;;;;;;;4956922;29;20561;-71
2021/12/18 05:42:33;;;;;;;27.03;14.97;;;;;;;;;;4956582;29;20669;-71
2021/12/18 05:45:37;;;;;;;28.27;15.70;;;;;;;;;;4956376;29;20952;-71
2021/12/18 05:48:41;;;;;;;28.83;16.00;;;;;;;;;;4933765;29;20551;-71
2021/12/18 05:51:46;;;;;;;28.87;16.13;;;;;;;;;;4937545;29;20626;-71
2021/12/18 05:54:50;;;;;;;29.93;16.03;;;;;;;;;;4937616;29;21121;-71
2021/12/18 05:57:54;;;;;;;29.67;16.80;;;;;;;;;;4925836;29;20563;-71
2021/12/18 06:00:58;;;;;;;25.77;15.53;;;;;;;;;;4944236;29;20199;-71
2021/12/18 06:04:02;;;;;;;27.83;15.23;;;;;;;;;;4956348;28;20562;-71
2021/12/18 06:07:07;;;;;;;26.90;16.17;;;;;;;;;;4944462;29;20606;-71
2021/12/18 06:10:12;;;;;;;29.53;17.50;;;;;;;;;;4956281;29;20612;-71
2021/12/18 06:13:16;;;;;;;26.80;15.97;;;;;;;;;;4956153;29;20606;-71
2021/12/18 06:16:21;;;;;;;27.50;15.57;;;;;;;;;;4955952;29;21198;-71
2021/12/18 06:19:25;;;;;;;27.13;15.73;;;;;;;;;;4956196;29;20559;-71
2021/12/18 06:22:29;;;;;;;27.10;15.33;;;;;;;;;;4955730;29;20661;-71
2021/12/18 06:25:33;;;;;;;28.63;15.43;;;;;;;;;;4956083;29;20572;-71
2021/12/18 06:28:37;;;;;;;28.37;16.23;;;;;;;;;;4955630;29;20199;-71
2021/12/18 06:31:41;;;;;;;27.40;15.00;;;;;;;;;;4955800;29;20654;-71
2021/12/18 06:34:45;;;;;;;27.83;15.20;;;;;;;;;;4943930;29;20208;-71
2021/12/18 06:37:50;;;;;;;28.03;15.00;;;;;;;;;;4955619;29;21221;-71
2021/12/18 06:40:55;;;;;;;26.93;16.07;;;;;;;;;;4955574;29;20602;-71
2021/12/18 06:43:59;;;;;;;28.73;15.47;;;;;;;;;;4955606;29;20642;-71
2021/12/18 06:47:03;;;;;;;27.10;14.50;;;;;;;;;;4955695;29;20606;-71
2021/12/18 06:50:07;;;;;;;26.73;14.43;;;;;;;;;;4955241;29;20661;-71
2021/12/18 06:53:11;;;;;;;27.50;15.00;;;;;;;;;;4955557;29;20568;-71
2021/12/18 06:56:16;;;;;;;26.33;14.43;;;;;;;;;;4955517;29;20573;-71
2021/12/18 06:59:20;;;;;;;24.40;14.17;;;;;;;;;;4943895;29;20194;-71
2021/12/18 07:02:25;;;;;;;25.50;14.93;;;;;;;;;;4940765;29;20745;-71
2021/12/18 07:05:29;;;;;;;27.23;13.50;;;;;;;;;;4931275;29;20208;-71
2021/12/18 07:08:33;;;;;;;24.83;14.70;;;;;;;;;;4943511;29;20192;-71
2021/12/18 07:11:38;;;;;;;24.80;14.47;;;;;;;;;;4932334;29;20230;-71
2021/12/18 07:14:42;;;;;;;22.10;12.77;;;;;;;;;;4954397;28;20199;-71
2021/12/18 07:17:46;;;;;;;25.03;14.40;;;;;;;;;;4954798;29;20689;-71
2021/12/18 07:20:51;;;;;;;25.00;14.40;;;;;;;;;;4953467;29;20202;-71
2021/12/18 07:23:55;;;;;;;26.13;14.33;;;;;;;;;;4954577;29;20275;-71
2021/12/18 07:27:00;;;;;;;24.00;13.80;;;;;;;;;;4954239;29;20203;-71
2021/12/18 07:30:05;;;;;;;21.87;13.03;;;;;;;;;;4954956;29;20699;-71
2021/12/18 07:33:11;;;;;;;23.30;13.13;;;;;;;;;;4954167;29;20671;-71
2021/12/18 07:36:15;;;;;;;21.87;12.47;;;;;;;;;;4953823;29;20204;-71
2021/12/18 07:39:19;;;;;;;23.60;12.53;;;;;;;;;;4942865;29;20277;-71
2021/12/18 07:42:24;;;;;;;21.73;12.70;;;;;;;;;;4954489;29;20222;-71
2021/12/18 07:45:28;;;;;;;24.83;12.93;;;;;;;;;;4954750;29;20667;-71
2021/12/18 07:48:32;;;;;;;23.37;12.43;;;;;;;;;;4948762;29;20590;-71
2021/12/18 07:51:36;;;;;;;26.53;14.30;;;;;;;;;;4954064;29;20652;-71
2021/12/18 07:54:41;;;;;;;26.00;14.63;;;;;;;;;;4935513;29;20603;-71
2021/12/18 07:57:45;;;;;;;27.83;14.83;;;;;;;;;;4923681;29;20610;-71
2021/12/18 08:00:50;;;;;;;31.10;18.43;;;;;;;;;;4935408;29;20556;-71
2021/12/18 08:03:54;;;;;;;32.63;19.07;;;;;;;;;;4954666;29;20207;-71
2021/12/18 08:06:58;;;;;;;25.53;15.40;;;;;;;;;;4953467;29;20199;-71
2021/12/18 08:10:03;;;;;;;23.07;13.73;;;;;;;;;;4954478;29;20252;-71
2021/12/18 08:13:07;;;;;;;23.67;12.77;;;;;;;;;;4931547;29;20195;-71
2021/12/18 08:16:12;;;;;;;20.47;12.10;;;;;;;;;;4953348;29;20226;-71
2021/12/18 08:19:16;;;;;;;19.73;12.27;;;;;;;;;;4945175;29;20195;-71
2021/12/18 08:22:20;;;;;;;21.37;12.60;;;;;;;;;;4952268;29;20227;-71
2021/12/18 08:25:26;;;;;;;23.47;15.03;;;;;;;;;;4923568;29;20209;-71
2021/12/18 08:28:30;;;;;;;20.20;12.10;;;;;;;;;;4937593;29;20181;-71
2021/12/18 08:31:34;;;;;;;20.17;12.90;;;;;;;;;;4956145;29;20242;-71
2021/12/18 08:34:39;;;;;;;20.83;11.97;;;;;;;;;;4957777;29;20541;-71
2021/12/18 08:37:43;;;;;;;18.90;12.43;;;;;;;;;;4957973;29;20201;-71
2021/12/18 08:40:49;;;;;;;19.90;12.07;;;;;;;;;;4945754;29;20191;-71
2021/12/18 08:43:53;;;;;;;20.80;11.83;;;;;;;;;;4937436;29;20191;-71
2021/12/18 08:46:57;;;;;;;19.80;11.77;;;;;;;;;;4957677;29;20210;-71
2021/12/18 08:50:03;;;;;;;18.13;11.27;;;;;;;;;;4957390;29;20222;-71
2021/12/18 08:53:08;;;;;;;19.20;12.13;;;;;;;;;;4957413;29;20207;-71
2021/12/18 08:56:12;;;;;;;20.43;12.83;;;;;;;;;;4957770;29;20645;-75
2021/12/18 08:59:16;;;;;;;19.90;11.57;;;;;;;;;;4945584;29;20697;-74
2021/12/18 09:02:21;;;;;;;18.77;11.13;;;;;;;;;;4957517;29;20223;-75
2021/12/18 09:05:26;;;;;;;15.03;9.50;;;;;;;;;;4945664;29;20190;-74
2021/12/18 09:08:30;;;;;;;14.60;8.90;;;;;;;;;;4957278;29;20546;-74
2021/12/18 09:11:34;;;;;;;15.70;8.70;;;;;;;;;;4945223;29;20704;-74
2021/12/18 09:14:39;;;;;;;14.57;8.83;;;;;;;;;;4957005;29;20195;-75
2021/12/18 09:17:44;;;;;;;12.37;7.93;;;;;;;;;;4945432;29;20196;-75
2021/12/18 09:20:48;;;;;;;19.07;11.57;;;;;;;;;;4934130;29;20191;-74
2021/12/18 09:23:52;;;;;;;16.13;9.60;;;;;;;;;;4934102;29;20580;-74
2021/12/18 09:26:56;;;;;;;11.87;7.70;;;;;;;;;;4957011;29;20207;-74
2021/12/18 09:30:01;;;;;;;14.47;9.33;;;;;;;;;;4957032;29;20203;-74
2021/12/18 09:33:05;;;;;;;9.83;6.83;;;;;;;;;;4953144;29;20219;-74
2021/12/18 09:36:09;;;;;;;12.10;7.47;;;;;;;;;;4956601;29;20599;-74
2021/12/18 09:39:14;;;;;;;9.07;6.77;;;;;;;;;;4955847;28;20586;-74
2021/12/18 09:42:18;;;;;;;13.17;7.40;;;;;;;;;;4937537;29;20215;-75
2021/12/18 09:45:23;;;;;;;9.50;6.63;;;;;;;;;;4929024;29;20580;-75
2021/12/18 09:48:28;;;;;;;12.10;8.10;;;;;;;;;;4938489;29;20603;-76
2021/12/18 09:51:35;;;;;;;15.83;9.07;;;;;;;;;;4952090;29;20675;-75
2021/12/18 09:54:39;;;;;;;14.30;8.13;;;;;;;;;;4929021;29;20599;-75
2021/12/18 09:57:45;;;;;;;13.47;8.27;;;;;;;;;;4938604;29;20571;-76
2021/12/18 10:00:49;;;;;;;10.37;6.43;;;;;;;;;;4939274;29;20591;-75
2021/12/18 10:03:57;;;;;;;10.13;7.23;;;;;;;;;;4930341;29;20195;-75
2021/12/18 10:07:15;;;;;;;10.67;6.47;;;;;;;;;;4941534;29;20583;-76
2021/12/18 10:10:19;;;;;;;10.03;7.37;;;;;;;;;;4951686;29;20675;-76
2021/12/18 10:13:23;;;;;;;9.83;7.37;;;;;;;;;;4952865;29;20227;-76
2021/12/18 10:16:29;;;;;;;8.00;6.10;;;;;;;;;;4930478;29;20180;-76
2021/12/18 10:19:39;;;;;;;9.97;7.10;;;;;;;;;;4919173;29;20199;-75
2021/12/18 10:22:52;;;;;;;12.30;7.83;;;;;;;;;;4910713;29;20224;-76
2021/12/18 10:25:56;;;;;;;11.77;7.63;;;;;;;;;;4922018;29;20576;-76
2021/12/18 10:29:00;;;;;;;10.77;7.83;;;;;;;;;;4917764;29;20661;-75
2021/12/18 10:32:06;;;;;;;10.63;7.47;;;;;;;;;;4940124;29;20231;-76
2021/12/18 10:35:10;;;;;;;10.67;7.73;;;;;;;;;;4927975;29;20195;-76
2021/12/18 10:38:40;;;;;;;10.77;7.47;;;;;;;;;;4940685;29;20199;-76
2021/12/18 10:41:44;;;;;;;10.83;7.47;;;;;;;;;;4929437;29;20284;-75
2021/12/18 10:44:55;;;;;;;10.27;7.67;;;;;;;;;;4934571;29;20211;-76
2021/12/18 10:48:13;;;;;;;12.87;8.97;;;;;;;;;;4934469;29;20188;-76
2021/12/18 10:51:22;;;;;;;15.10;8.87;;;;;;;;;;4910867;29;20236;-75
2021/12/18 10:54:26;;;;;;;13.93;9.30;;;;;;;;;;4949534;29;20203;-77
2021/12/18 10:57:31;;;;;;;12.53;7.23;;;;;;;;;;4941173;29;20184;-75
2021/12/18 11:00:40;;;;;;;13.97;8.77;;;;;;;;;;4940080;29;20191;-75
2021/12/18 11:03:46;;;;;;;14.17;9.03;;;;;;;;;;4952708;29;20188;-74
2021/12/18 11:06:50;;;;;;;12.93;9.20;;;;;;;;;;4940690;29;20199;-75
2021/12/18 11:10:21;;;;;;;12.30;8.73;;;;;;;;;;4940716;29;20183;-74
2021/12/18 11:13:45;;;;;;;12.00;8.90;;;;;;;;;;4952846;29;20180;-75
2021/12/18 11:17:00;;;;;;;15.97;10.53;;;;;;;;;;4941114;29;20180;-74
2021/12/18 11:20:04;;;;;;;11.10;7.80;;;;;;;;;;4952263;29;20199;-74
2021/12/18 11:23:09;;;;;;;14.27;8.83;;;;;;;;;;4940053;29;20195;-75
2021/12/18 11:26:14;;;;;;;13.30;8.47;;;;;;;;;;4951375;29;20200;-74
2021/12/18 11:29:25;;;;;;;11.43;7.63;;;;;;;;;;4921706;29;20538;-75
2021/12/18 11:32:32;;;;;;;13.27;9.57;;;;;;;;;;4933830;29;20239;-75
2021/12/18 11:35:36;;;;;;;12.50;8.97;;;;;;;;;;4921697;29;20189;-76
2021/12/18 11:38:44;;;;;;;14.87;8.77;;;;;;;;;;4922257;29;20188;-76
2021/12/18 11:41:51;;;;;;;13.60;8.47;;;;;;;;;;4945901;29;20223;-77
2021/12/18 11:44:57;;;;;;;13.20;9.33;;;;;;;;;;4952883;29;20199;-77
2021/12/18 11:48:04;;;;;;;13.90;9.40;;;;;;;;;;4951984;29;20188;-76
2021/12/18 11:51:11;;;;;;;11.87;8.30;;;;;;;;;;4946395;29;20235;-77
2021/12/18 11:54:52;;;;;;;13.47;8.83;;;;;;;;;;4940650;29;20199;-75
2021/12/18 11:58:00;;;;;;;14.17;9.77;;;;;;;;;;4940551;29;20183;-76
2021/12/18 12:01:16;;;;;;;13.67;9.37;;;;;;;;;;4952099;28;20708;-76
2021/12/18 12:04:20;;;;;;;17.80;10.20;;;;;;;;;;4944721;29;20191;-76
2021/12/18 12:07:26;;;;;;;13.60;9.93;;;;;;;;;;4955741;29;20214;-76
2021/12/18 12:14:11;;;;;;;13.43;9.37;;;;;;;;;;4958723;29;20542;-76
2021/12/18 12:17:27;;;;;;;11.40;8.57;;;;;;;;;;4957648;29;20187;-76
2021/12/18 12:20:39;;;;;;;14.07;9.97;;;;;;;;;;4946829;29;20196;-75
2021/12/18 12:24:00;;;;;;;11.00;9.10;;;;;;;;;;4958982;29;20195;-76
2021/12/18 12:27:26;;;;;;;13.50;8.80;;;;;;;;;;4957857;29;20188;-76
2021/12/18 12:30:43;;;;;;;12.17;8.73;;;;;;;;;;4957672;29;20184;-75
2021/12/18 12:33:49;;;;;;;10.50;7.13;;;;;;;;;;4957735;29;20543;-75
2021/12/18 12:36:58;;;;;;;10.43;7.73;;;;;;;;;;4946885;29;20188;-76
2021/12/18 12:40:06;;;;;;;10.93;7.83;;;;;;;;;;4958330;29;20200;-76
2021/12/18 12:43:22;;;;;;;12.33;8.23;;;;;;;;;;4946390;29;20543;-75
2021/12/18 12:46:26;;;;;;;11.47;8.10;;;;;;;;;;4958256;29;20195;-75
2021/12/18 12:49:30;;;;;;;11.60;8.67;;;;;;;;;;4957908;29;20204;-76
2021/12/18 12:52:59;;;;;;;14.17;8.33;;;;;;;;;;4957990;29;20238;-75
2021/12/18 12:56:14;;;;;;;12.43;9.10;;;;;;;;;;4946229;29;20183;-76
2021/12/18 12:59:24;;;;;;;10.40;7.67;;;;;;;;;;4935080;29;20192;-75
2021/12/18 13:02:30;;;;;;;11.07;8.70;;;;;;;;;;4934813;29;20219;-75
2021/12/18 13:05:51;;;;;;;12.43;8.93;;;;;;;;;;4957722;29;20538;-75
2021/12/18 13:08:55;;;;;;;12.67;8.60;;;;;;;;;;4958102;29;20196;-75
2021/12/18 13:12:01;;;;;;;13.07;9.37;;;;;;;;;;4945397;29;20239;-75
2021/12/18 13:15:05;;;;;;;12.80;9.60;;;;;;;;;;4945235;29;20192;-75
2021/12/18 13:18:10;;;;;;;13.40;9.57;;;;;;;;;;4956864;29;20199;-75
2021/12/18 13:21:30;;;;;;;14.47;9.00;;;;;;;;;;4945584;29;20219;-75
2021/12/18 13:24:34;;;;;;;12.60;9.10;;;;;;;;;;4957132;29;20199;-75
2021/12/18 13:27:43;;;;;;;14.37;9.20;;;;;;;;;;4945732;29;20191;-75
2021/12/18 13:30:50;;;;;;;13.87;8.80;;;;;;;;;;4957579;29;20192;-75
2021/12/18 13:34:03;;;;;;;14.13;9.93;;;;;;;;;;4936193;29;20192;-75
2021/12/18 13:37:11;;;;;;;12.60;9.13;;;;;;;;;;4947063;29;20199;-73
2021/12/18 13:40:16;;;;;;;14.30;9.13;;;;;;;;;;4945281;29;20546;-72
2021/12/18 13:43:24;;;;;;;12.27;8.60;;;;;;;;;;4932532;29;20218;-72
2021/12/18 13:46:30;;;;;;;10.83;8.70;;;;;;;;;;4925904;29;20199;-72
2021/12/18 13:49:34;;;;;;;13.67;9.43;;;;;;;;;;4937608;29;20208;-72
2021/12/18 13:52:45;;;;;;;14.47;9.50;;;;;;;;;;4925716;29;20582;-72
2021/12/18 13:55:57;;;;;;;13.03;9.73;;;;;;;;;;4937768;29;20797;-72
2021/12/18 13:59:19;;;;;;;14.80;10.10;;;;;;;;;;4925879;29;20189;-72
2021/12/18 14:02:23;;;;;;;15.37;10.50;;;;;;;;;;4926175;29;20695;-72
2021/12/18 14:05:27;;;;;;;13.77;9.50;;;;;;;;;;4915085;29;20546;-72
2021/12/18 14:08:34;;;;;;;13.27;9.60;;;;;;;;;;4937693;29;20185;-72
2021/12/18 14:11:45;;;;;;;14.00;9.70;;;;;;;;;;4937273;29;20227;-72
2021/12/18 14:14:52;;;;;;;13.37;9.07;;;;;;;;;;4937217;29;20200;-71
2021/12/18 14:18:00;;;;;;;14.77;9.50;;;;;;;;;;4937728;29;20200;-72
2021/12/18 14:21:05;;;;;;;13.43;8.97;;;;;;;;;;4937001;29;20228;-72
2021/12/18 14:24:13;;;;;;;15.67;10.23;;;;;;;;;;4937040;29;20604;-72
2021/12/18 14:27:17;;;;;;;13.57;9.50;;;;;;;;;;4937069;29;20679;-72
2021/12/18 14:30:29;;;;;;;15.60;9.67;;;;;;;;;;4954181;29;20192;-72
2021/12/18 14:33:49;;;;;;;13.03;9.43;;;;;;;;;;4955559;29;20184;-72
2021/12/18 14:37:06;;;;;;;13.43;9.53;;;;;;;;;;4955925;29;20203;-72
2021/12/18 14:40:15;;;;;;;12.37;9.10;;;;;;;;;;4956008;29;20195;-72
2021/12/18 14:43:23;;;;;;;15.03;9.87;;;;;;;;;;4956242;29;20188;-72
2021/12/18 14:46:27;;;;;;;13.07;9.30;;;;;;;;;;4956101;29;20184;-72
2021/12/18 14:49:31;;;;;;;18.10;10.30;;;;;;;;;;4933192;29;20183;-72
2021/12/18 14:52:59;;;;;;;17.43;11.43;;;;;;;;;;4955815;29;20666;-72
2021/12/18 14:56:03;;;;;;;18.73;11.90;;;;;;;;;;4955874;29;20542;-72
2021/12/18 14:59:17;;;;;;;19.73;13.57;;;;;;;;;;4934244;29;20593;-72
2021/12/18 15:02:22;;;;;;;22.53;14.70;;;;;;;;;;4955449;29;20653;-72
2021/12/18 15:05:47;;;;;;;17.90;11.37;;;;;;;;;;4932838;29;20564;-72
2021/12/18 15:09:02;;;;;;;15.77;10.43;;;;;;;;;;4930344;29;20630;-72
2021/12/18 15:12:07;;;;;;;17.23;10.23;;;;;;;;;;4955050;29;20239;-72
2021/12/18 15:15:13;;;;;;;19.10;12.17;;;;;;;;;;4942757;29;20666;-72
2021/12/18 15:18:18;;;;;;;14.90;9.60;;;;;;;;;;4955644;29;20541;-72
2021/12/18 15:21:22;;;;;;;15.20;10.33;;;;;;;;;;4951586;29;20227;-72
2021/12/18 15:24:27;;;;;;;15.50;10.80;;;;;;;;;;4939783;29;20205;-72
2021/12/18 15:27:31;;;;;;;16.17;10.33;;;;;;;;;;4939783;29;20928;-72
2021/12/18 15:30:35;;;;;;;14.87;10.00;;;;;;;;;;4939606;29;20679;-73
2021/12/18 15:33:40;;;;;;;15.57;10.27;;;;;;;;;;4951167;29;20630;-73
2021/12/18 15:36:46;;;;;;;16.93;10.97;;;;;;;;;;4950980;28;20570;-73
2021/12/18 15:39:51;;;;;;;17.00;11.13;;;;;;;;;;4939825;29;20948;-72
2021/12/18 15:42:55;;;;;;;14.93;10.07;;;;;;;;;;4951274;29;20226;-72
2021/12/18 15:46:00;;;;;;;15.87;10.60;;;;;;;;;;4950819;29;20578;-72
2021/12/18 15:49:06;;;;;;;17.23;11.17;;;;;;;;;;4950370;29;20578;-72
2021/12/18 15:52:10;;;;;;;20.27;12.83;;;;;;;;;;4950600;29;20683;-72
2021/12/18 15:55:14;;;;;;;25.50;12.97;;;;;;;;;;4939342;29;20203;-73
2021/12/18 15:58:18;;;;;;;19.30;11.97;;;;;;;;;;4937720;29;20574;-73
2021/12/18 16:01:23;;;;;;;16.90;11.57;;;;;;;;;;4939348;29;20248;-72
2021/12/18 16:04:27;;;;;;;16.43;11.47;;;;;;;;;;4951173;29;20206;-72
2021/12/18 16:07:32;;;;;;;18.03;11.07;;;;;;;;;;4951115;29;21146;-72
2021/12/18 16:10:38;;;;;;;17.63;11.13;;;;;;;;;;4950858;29;20618;-72
2021/12/18 16:13:42;;;;;;;17.10;11.37;;;;;;;;;;4939297;29;20638;-72
2021/12/18 16:16:48;;;;;;;16.00;10.33;;;;;;;;;;4951050;29;20605;-72
2021/12/18 16:19:51;;;;;;;17.03;10.90;;;;;;;;;;4941579;29;20200;-72
2021/12/18 16:22:56;;;;;;;16.03;10.97;;;;;;;;;;4942775;29;20626;-72
2021/12/18 16:26:00;;;;;;;16.03;10.87;;;;;;;;;;4943080;29;20558;-72
2021/12/18 16:29:04;;;;;;;17.47;10.77;;;;;;;;;;4954719;29;20917;-72
2021/12/18 16:32:08;;;;;;;15.70;10.70;;;;;;;;;;4953878;29;20667;-72
2021/12/18 16:35:13;;;;;;;16.60;11.27;;;;;;;;;;4942939;29;20564;-72
2021/12/18 16:41:21;;;;;;;57.20;33.40;;;;;;;;;;4931861;29;20630;-72
2021/12/18 16:44:26;;;;;;;36.13;25.83;;;;;;;;;;4954435;29;21119;-72
2021/12/18 16:47:30;;;;;;;24.03;16.30;;;;;;;;;;4942916;28;21097;-72
2021/12/18 16:50:36;;;;;;;18.50;12.77;;;;;;;;;;4958056;29;20586;-72
2021/12/18 16:53:40;;;;;;;16.77;11.30;;;;;;;;;;4958332;29;21151;-72
2021/12/18 16:56:44;;;;;;;16.53;10.97;;;;;;;;;;4946311;29;20550;-72
2021/12/18 16:59:48;;;;;;;17.80;11.77;;;;;;;;;;4957871;29;20560;-72
2021/12/18 17:02:53;;;;;;;17.53;11.73;;;;;;;;;;4957623;29;20631;-72
2021/12/18 17:05:57;;;;;;;18.30;11.67;;;;;;;;;;4934914;29;20574;-72
2021/12/18 17:09:02;;;;;;;16.30;11.40;;;;;;;;;;4958147;29;21097;-72
2021/12/18 17:12:07;;;;;;;16.23;11.13;;;;;;;;;;4957388;29;21007;-72
2021/12/18 17:15:11;;;;;;;18.77;12.03;;;;;;;;;;4957512;29;20570;-72
2021/12/18 17:18:15;;;;;;;18.53;12.17;;;;;;;;;;4957717;29;20555;-72
2021/12/18 17:21:19;;;;;;;17.87;11.53;;;;;;;;;;4945395;29;20637;-72
2021/12/18 17:24:23;;;;;;;20.10;11.13;;;;;;;;;;4957822;29;20606;-72
2021/12/18 17:27:27;;;;;;;19.93;11.77;;;;;;;;;;4957235;29;20699;-72
2021/12/18 17:30:32;;;;;;;21.23;12.20;;;;;;;;;;4957494;29;20620;-72
2021/12/18 17:33:36;;;;;;;22.33;13.07;;;;;;;;;;4957387;29;21159;-72
2021/12/18 17:36:40;;;;;;;22.13;14.30;;;;;;;;;;4945582;29;20547;-72
2021/12/18 17:39:45;;;;;;;22.27;13.37;;;;;;;;;;4957601;29;20554;-72
2021/12/18 17:42:51;;;;;;;19.83;13.37;;;;;;;;;;4957480;29;20633;-72
2021/12/18 17:45:56;;;;;;;22.47;14.90;;;;;;;;;;4945426;29;20980;-72
2021/12/18 17:49:00;;;;;;;21.03;13.17;;;;;;;;;;4945099;29;20614;-72
2021/12/18 17:52:06;;;;;;;20.63;13.23;;;;;;;;;;4957214;29;20635;-72
2021/12/18 17:55:10;;;;;;;22.17;13.50;;;;;;;;;;4945268;29;21112;-72
2021/12/18 17:58:14;;;;;;;20.73;13.40;;;;;;;;;;4956687;29;20614;-72
2021/12/18 18:01:19;;;;;;;19.20;12.80;;;;;;;;;;4952696;29;20633;-72
2021/12/18 18:04:24;;;;;;;19.53;12.43;;;;;;;;;;4952865;29;20609;-72
2021/12/18 18:07:28;;;;;;;21.27;13.57;;;;;;;;;;4952858;29;20928;-73
2021/12/18 18:10:42;;;;;;;21.00;13.10;;;;;;;;;;4952863;29;20924;-73
2021/12/18 18:13:46;;;;;;;22.43;13.83;;;;;;;;;;4929591;29;20649;-73
2021/12/18 18:16:51;;;;;;;22.80;14.00;;;;;;;;;;4952675;29;20576;-72
2021/12/18 18:19:55;;;;;;;24.37;14.03;;;;;;;;;;4952692;29;20587;-73
2021/12/18 18:22:59;;;;;;;20.50;13.57;;;;;;;;;;4951750;29;20626;-73
2021/12/18 18:26:03;;;;;;;24.20;14.33;;;;;;;;;;4952089;29;20618;-73
2021/12/18 18:29:08;;;;;;;21.47;14.07;;;;;;;;;;4952567;29;21524;-72
2021/12/18 18:32:12;;;;;;;22.33;14.23;;;;;;;;;;4952212;29;20647;-72
2021/12/18 18:35:17;;;;;;;21.50;14.17;;;;;;;;;;4952349;29;20993;-72
2021/12/18 18:38:22;;;;;;;20.93;13.30;;;;;;;;;;4952284;29;20932;-72
2021/12/18 18:41:28;;;;;;;24.03;13.50;;;;;;;;;;4940396;29;20644;-72
2021/12/18 18:44:36;;;;;;;18.50;12.13;;;;;;;;;;4952334;29;20933;-72
2021/12/18 18:47:56;;;;;;;18.87;12.30;;;;;;;;;;4940266;29;20609;-73
2021/12/18 18:51:07;;;;;;;22.47;13.93;;;;;;;;;;4940363;29;20650;-72
2021/12/18 18:54:14;;;;;;;23.13;13.67;;;;;;;;;;4951900;29;20685;-72
2021/12/18 18:57:19;;;;;;;22.00;13.93;;;;;;;;;;4950447;29;21059;-73
2021/12/18 19:00:25;;;;;;;23.00;15.17;;;;;;;;;;4951662;29;20607;-72